sensor_id;sensor_type;location;lat;lon;timestamp;pressure;altitude;pressure_sealevel;temperature;humidity
24390;BME280;12510;56.468;-3.004;2022-11-15T00:00:18;99052.97;;;18.19;nan
24390;BME280;12510;56.468;-3.004;2022-11-15T00:03:03;99049.44;;;18.06;nan
24390;BME280;12510;56.468;-3.004;2022-11-15T00:05:48;99040.72;;;18.60;nan
24390;BME280;12510;56.468;-3.004;2022-11-15T00:08:34;99040.16;;;18.70;nan
24390;BME280;12510;56.468;-3.004;2022-11-15T00:11:18;99045.34;;;18.95;nan
24390;BME280;12510;56.468;-3.004;2022-11-15T00:14:03;99046.56;;;18.69;nan
24390;BME280;12510;56.468;-3.004;2022-11-15T00:16:48;99034.38;;;18.61;nan
24390;BME280;12510;56.468;-3.004;2022-11-15T00:19:33;99034.47;;;18.24;nan
24390;BME280;12510;56.468;-3.004;2022-11-15T00:22:19;99028.44;;;18.17;nan
24390;BME280;12510;56.468;-3.004;2022-11-15T00:25:05;99025.34;;;18.62;nan
24390;BME280;12510;56.468;-3.004;2022-11-15T00:27:49;99022.06;;;18.60;nan
24390;BME280;12510;56.468;-3.004;2022-11-15T00:30:36;99015.63;;;18.37;nan
24390;BME280;12510;56.468;-3.004;2022-11-15T00:33:21;99009.56;;;17.81;nan
24390;BME280;12510;56.468;-3.004;2022-11-15T00:36:08;99009.59;;;18.00;nan
24390;BME280;12510;56.468;-3.004;2022-11-15T00:38:53;99009.19;;;18.15;nan
24390;BME280;12510;56.468;-3.004;2022-11-15T00:41:38;98999.88;;;18.05;nan
24390;BME280;12510;56.468;-3.004;2022-11-15T00:44:23;98992.50;;;17.33;nan
24390;BME280;12510;56.468;-3.004;2022-11-15T00:47:08;98982.69;;;17.71;nan
24390;BME280;12510;56.468;-3.004;2022-11-15T00:49:53;98979.03;;;17.65;nan
24390;BME280;12510;56.468;-3.004;2022-11-15T00:52:38;98981.31;;;18.71;nan
24390;BME280;12510;56.468;-3.004;2022-11-15T00:55:23;98972.41;;;18.89;nan
24390;BME280;12510;56.468;-3.004;2022-11-15T00:58:09;98966.25;;;18.35;nan
24390;BME280;12510;56.468;-3.004;2022-11-15T01:00:54;98959.13;;;18.05;nan
24390;BME280;12510;56.468;-3.004;2022-11-15T01:03:40;98952.34;;;18.21;nan
24390;BME280;12510;56.468;-3.004;2022-11-15T01:06:25;98960.16;;;18.04;nan
24390;BME280;12510;56.468;-3.004;2022-11-15T01:09:10;98951.59;;;18.68;nan
24390;BME280;12510;56.468;-3.004;2022-11-15T01:11:55;98945.88;;;18.29;nan
24390;BME280;12510;56.468;-3.004;2022-11-15T01:14:40;98942.34;;;17.86;nan
24390;BME280;12510;56.468;-3.004;2022-11-15T01:17:25;98944.25;;;17.97;nan
24390;BME280;12510;56.468;-3.004;2022-11-15T01:20:11;98929.53;;;19.43;nan
24390;BME280;12510;56.468;-3.004;2022-11-15T01:22:55;98920.69;;;18.13;nan
24390;BME280;12510;56.468;-3.004;2022-11-15T01:25:40;98912.97;;;18.35;nan
24390;BME280;12510;56.468;-3.004;2022-11-15T01:28:29;98913.38;;;17.78;nan
24390;BME280;12510;56.468;-3.004;2022-11-15T01:31:17;98909.75;;;17.41;nan
24390;BME280;12510;56.468;-3.004;2022-11-15T01:34:03;98906.06;;;17.24;nan
24390;BME280;12510;56.468;-3.004;2022-11-15T01:36:47;98917.06;;;17.95;nan
24390;BME280;12510;56.468;-3.004;2022-11-15T01:39:33;98913.97;;;17.61;nan
24390;BME280;12510;56.468;-3.004;2022-11-15T01:42:18;98907.81;;;17.79;nan
24390;BME280;12510;56.468;-3.004;2022-11-15T01:45:03;98896.97;;;18.35;nan
24390;BME280;12510;56.468;-3.004;2022-11-15T01:47:51;98910.50;;;18.21;nan
24390;BME280;12510;56.468;-3.004;2022-11-15T01:50:38;98910.94;;;18.06;nan
24390;BME280;12510;56.468;-3.004;2022-11-15T01:53:24;98912.66;;;18.01;nan
24390;BME280;12510;56.468;-3.004;2022-11-15T01:56:17;98903.06;;;17.51;nan
24390;BME280;12510;56.468;-3.004;2022-11-15T01:59:06;98892.47;;;18.59;nan
24390;BME280;12510;56.468;-3.004;2022-11-15T02:01:53;98889.38;;;18.74;nan
24390;BME280;12510;56.468;-3.004;2022-11-15T02:04:42;98888.22;;;18.58;nan
24390;BME280;12510;56.468;-3.004;2022-11-15T02:07:28;98884.34;;;17.88;nan
24390;BME280;12510;56.468;-3.004;2022-11-15T02:10:19;98888.66;;;18.55;nan
24390;BME280;12510;56.468;-3.004;2022-11-15T02:13:04;98880.84;;;18.06;nan
24390;BME280;12510;56.468;-3.004;2022-11-15T02:28:06;98860.53;;;17.14;nan
24390;BME280;12510;56.468;-3.004;2022-11-15T02:31:11;98863.00;;;18.06;nan
24390;BME280;12510;56.468;-3.004;2022-11-15T02:34:22;98847.19;;;18.35;nan
24390;BME280;12510;56.468;-3.004;2022-11-15T02:37:25;98849.03;;;18.47;nan
24390;BME280;12510;56.468;-3.004;2022-11-15T02:43:25;98837.19;;;18.19;nan
24390;BME280;12510;56.468;-3.004;2022-11-15T02:46:43;98830.06;;;17.89;nan
24390;BME280;12510;56.468;-3.004;2022-11-15T02:49:52;98825.53;;;17.89;nan
24390;BME280;12510;56.468;-3.004;2022-11-15T02:52:38;98814.69;;;17.61;nan
24390;BME280;12510;56.468;-3.004;2022-11-15T03:04:42;98787.16;;;17.55;nan
24390;BME280;12510;56.468;-3.004;2022-11-15T03:10:36;98781.44;;;17.82;nan
24390;BME280;12510;56.468;-3.004;2022-11-15T03:16:38;98771.28;;;18.26;nan
24390;BME280;12510;56.468;-3.004;2022-11-15T03:19:33;98782.13;;;17.47;nan
24390;BME280;12510;56.468;-3.004;2022-11-15T03:22:23;98779.16;;;17.55;nan
24390;BME280;12510;56.468;-3.004;2022-11-15T03:25:13;98766.34;;;17.33;nan
24390;BME280;12510;56.468;-3.004;2022-11-15T03:28:03;98769.66;;;16.80;nan
24390;BME280;12510;56.468;-3.004;2022-11-15T03:30:50;98760.47;;;17.31;nan
24390;BME280;12510;56.468;-3.004;2022-11-15T03:33:38;98756.97;;;17.73;nan
24390;BME280;12510;56.468;-3.004;2022-11-15T03:36:25;98739.16;;;17.85;nan
24390;BME280;12510;56.468;-3.004;2022-11-15T03:39:12;98738.38;;;18.20;nan
24390;BME280;12510;56.468;-3.004;2022-11-15T03:45:13;98737.34;;;18.09;nan
24390;BME280;12510;56.468;-3.004;2022-11-15T03:48:05;98730.28;;;18.03;nan
24390;BME280;12510;56.468;-3.004;2022-11-15T03:50:52;98739.53;;;17.35;nan
24390;BME280;12510;56.468;-3.004;2022-11-15T03:53:37;98739.94;;;17.62;nan
24390;BME280;12510;56.468;-3.004;2022-11-15T03:56:22;98737.13;;;17.99;nan
24390;BME280;12510;56.468;-3.004;2022-11-15T03:59:07;98732.31;;;19.30;nan
24390;BME280;12510;56.468;-3.004;2022-11-15T04:01:52;98731.09;;;17.92;nan
24390;BME280;12510;56.468;-3.004;2022-11-15T04:04:37;98722.16;;;17.86;nan
24390;BME280;12510;56.468;-3.004;2022-11-15T04:07:22;98722.38;;;17.73;nan
24390;BME280;12510;56.468;-3.004;2022-11-15T04:10:09;98726.47;;;18.11;nan
24390;BME280;12510;56.468;-3.004;2022-11-15T04:12:55;98724.56;;;17.76;nan
24390;BME280;12510;56.468;-3.004;2022-11-15T04:15:39;98709.75;;;17.56;nan
24390;BME280;12510;56.468;-3.004;2022-11-15T04:18:24;98709.06;;;17.73;nan
24390;BME280;12510;56.468;-3.004;2022-11-15T04:21:10;98709.25;;;17.48;nan
24390;BME280;12510;56.468;-3.004;2022-11-15T04:24:14;98717.09;;;18.08;nan
24390;BME280;12510;56.468;-3.004;2022-11-15T04:26:59;98700.38;;;17.66;nan
24390;BME280;12510;56.468;-3.004;2022-11-15T04:29:44;98695.31;;;18.23;nan
24390;BME280;12510;56.468;-3.004;2022-11-15T04:32:29;98701.56;;;17.28;nan
24390;BME280;12510;56.468;-3.004;2022-11-15T04:35:14;98678.22;;;18.48;nan
24390;BME280;12510;56.468;-3.004;2022-11-15T04:38:00;98682.66;;;18.31;nan
24390;BME280;12510;56.468;-3.004;2022-11-15T04:40:46;98682.78;;;17.76;nan
24390;BME280;12510;56.468;-3.004;2022-11-15T04:43:31;98668.13;;;17.98;nan
24390;BME280;12510;56.468;-3.004;2022-11-15T04:46:16;98655.94;;;17.90;nan
24390;BME280;12510;56.468;-3.004;2022-11-15T04:49:01;98654.31;;;17.89;nan
24390;BME280;12510;56.468;-3.004;2022-11-15T04:51:46;98653.50;;;17.65;nan
24390;BME280;12510;56.468;-3.004;2022-11-15T04:54:31;98650.47;;;17.49;nan
24390;BME280;12510;56.468;-3.004;2022-11-15T04:57:16;98632.94;;;17.06;nan
24390;BME280;12510;56.468;-3.004;2022-11-15T05:00:04;98633.53;;;17.20;nan
24390;BME280;12510;56.468;-3.004;2022-11-15T05:02:49;98631.28;;;17.35;nan
24390;BME280;12510;56.468;-3.004;2022-11-15T05:05:53;98628.78;;;17.10;nan
24390;BME280;12510;56.468;-3.004;2022-11-15T05:08:38;98630.13;;;17.43;nan
24390;BME280;12510;56.468;-3.004;2022-11-15T05:11:23;98629.94;;;17.02;nan
24390;BME280;12510;56.468;-3.004;2022-11-15T05:14:08;98635.19;;;17.21;nan
24390;BME280;12510;56.468;-3.004;2022-11-15T05:16:54;98634.75;;;17.59;nan
24390;BME280;12510;56.468;-3.004;2022-11-15T05:19:38;98629.66;;;17.58;nan
24390;BME280;12510;56.468;-3.004;2022-11-15T05:22:24;98623.19;;;17.78;nan
24390;BME280;12510;56.468;-3.004;2022-11-15T05:25:09;98631.28;;;17.59;nan
24390;BME280;12510;56.468;-3.004;2022-11-15T05:27:54;98629.16;;;17.14;nan
24390;BME280;12510;56.468;-3.004;2022-11-15T05:30:39;98632.63;;;17.26;nan
24390;BME280;12510;56.468;-3.004;2022-11-15T05:33:24;98621.47;;;16.94;nan
24390;BME280;12510;56.468;-3.004;2022-11-15T05:39:15;98614.72;;;17.81;nan
24390;BME280;12510;56.468;-3.004;2022-11-15T05:42:11;98617.63;;;17.79;nan
24390;BME280;12510;56.468;-3.004;2022-11-15T05:44:57;98617.03;;;17.53;nan
24390;BME280;12510;56.468;-3.004;2022-11-15T05:47:44;98610.91;;;17.65;nan
24390;BME280;12510;56.468;-3.004;2022-11-15T05:50:29;98609.94;;;17.12;nan
24390;BME280;12510;56.468;-3.004;2022-11-15T05:53:16;98591.22;;;17.89;nan
24390;BME280;12510;56.468;-3.004;2022-11-15T05:56:04;98585.56;;;17.86;nan
24390;BME280;12510;56.468;-3.004;2022-11-15T05:58:52;98579.47;;;17.62;nan
24390;BME280;12510;56.468;-3.004;2022-11-15T06:01:38;98566.50;;;17.30;nan
24390;BME280;12510;56.468;-3.004;2022-11-15T06:04:24;98563.56;;;17.79;nan
24390;BME280;12510;56.468;-3.004;2022-11-15T06:07:09;98555.50;;;17.62;nan
24390;BME280;12510;56.468;-3.004;2022-11-15T06:09:54;98559.88;;;16.97;nan
24390;BME280;12510;56.468;-3.004;2022-11-15T06:12:39;98555.38;;;17.21;nan
24390;BME280;12510;56.468;-3.004;2022-11-15T06:15:24;98551.22;;;17.61;nan
24390;BME280;12510;56.468;-3.004;2022-11-15T06:18:09;98549.13;;;17.63;nan
24390;BME280;12510;56.468;-3.004;2022-11-15T06:20:58;98551.56;;;17.64;nan
24390;BME280;12510;56.468;-3.004;2022-11-15T06:23:43;98554.25;;;17.40;nan
24390;BME280;12510;56.468;-3.004;2022-11-15T06:26:28;98543.66;;;17.69;nan
24390;BME280;12510;56.468;-3.004;2022-11-15T06:29:13;98543.34;;;17.66;nan
24390;BME280;12510;56.468;-3.004;2022-11-15T06:31:58;98543.41;;;17.83;nan
24390;BME280;12510;56.468;-3.004;2022-11-15T06:34:43;98536.00;;;17.97;nan
24390;BME280;12510;56.468;-3.004;2022-11-15T06:37:28;98538.97;;;18.12;nan
24390;BME280;12510;56.468;-3.004;2022-11-15T06:40:13;98541.69;;;17.88;nan
24390;BME280;12510;56.468;-3.004;2022-11-15T06:42:59;98552.25;;;18.53;nan
24390;BME280;12510;56.468;-3.004;2022-11-15T06:45:44;98554.06;;;18.35;nan
24390;BME280;12510;56.468;-3.004;2022-11-15T06:48:30;98551.97;;;18.37;nan
24390;BME280;12510;56.468;-3.004;2022-11-15T06:51:15;98558.56;;;18.64;nan
24390;BME280;12510;56.468;-3.004;2022-11-15T06:54:00;98552.94;;;18.31;nan
24390;BME280;12510;56.468;-3.004;2022-11-15T06:56:45;98552.94;;;18.31;nan
24390;BME280;12510;56.468;-3.004;2022-11-15T06:59:30;98537.56;;;19.35;nan
24390;BME280;12510;56.468;-3.004;2022-11-15T07:02:15;98553.63;;;19.18;nan
24390;BME280;12510;56.468;-3.004;2022-11-15T07:05:00;98554.88;;;18.65;nan
24390;BME280;12510;56.468;-3.004;2022-11-15T07:07:51;98551.34;;;17.30;nan
24390;BME280;12510;56.468;-3.004;2022-11-15T07:10:36;98546.78;;;17.90;nan
24390;BME280;12510;56.468;-3.004;2022-11-15T07:13:24;98555.19;;;18.85;nan
24390;BME280;12510;56.468;-3.004;2022-11-15T07:16:10;98548.31;;;18.26;nan
24390;BME280;12510;56.468;-3.004;2022-11-15T07:18:56;98561.78;;;18.08;nan
24390;BME280;12510;56.468;-3.004;2022-11-15T07:21:41;98557.13;;;17.51;nan
24390;BME280;12510;56.468;-3.004;2022-11-15T07:24:26;98530.16;;;17.71;nan
24390;BME280;12510;56.468;-3.004;2022-11-15T07:27:11;98551.41;;;18.35;nan
24390;BME280;12510;56.468;-3.004;2022-11-15T07:29:56;98538.88;;;18.65;nan
24390;BME280;12510;56.468;-3.004;2022-11-15T07:32:41;98535.72;;;18.22;nan
24390;BME280;12510;56.468;-3.004;2022-11-15T07:35:27;98535.16;;;19.17;nan
24390;BME280;12510;56.468;-3.004;2022-11-15T07:38:12;98531.88;;;18.47;nan
24390;BME280;12510;56.468;-3.004;2022-11-15T07:40:58;98517.63;;;17.95;nan
24390;BME280;12510;56.468;-3.004;2022-11-15T07:43:44;98516.97;;;18.34;nan
24390;BME280;12510;56.468;-3.004;2022-11-15T07:46:29;98493.28;;;17.91;nan
24390;BME280;12510;56.468;-3.004;2022-11-15T07:49:14;98483.09;;;18.46;nan
24390;BME280;12510;56.468;-3.004;2022-11-15T07:51:59;98486.31;;;18.48;nan
24390;BME280;12510;56.468;-3.004;2022-11-15T07:54:44;98481.81;;;18.83;nan
24390;BME280;12510;56.468;-3.004;2022-11-15T07:57:29;98483.78;;;17.55;nan
24390;BME280;12510;56.468;-3.004;2022-11-15T08:00:15;98495.91;;;18.95;nan
24390;BME280;12510;56.468;-3.004;2022-11-15T08:03:04;98496.72;;;18.96;nan
24390;BME280;12510;56.468;-3.004;2022-11-15T08:05:51;98484.91;;;19.08;nan
24390;BME280;12510;56.468;-3.004;2022-11-15T08:08:37;98485.22;;;19.29;nan
24390;BME280;12510;56.468;-3.004;2022-11-15T08:11:22;98492.09;;;19.25;nan
24390;BME280;12510;56.468;-3.004;2022-11-15T08:14:06;98480.06;;;19.67;nan
24390;BME280;12510;56.468;-3.004;2022-11-15T08:16:51;98468.75;;;19.59;nan
24390;BME280;12510;56.468;-3.004;2022-11-15T08:19:37;98467.81;;;19.49;nan
24390;BME280;12510;56.468;-3.004;2022-11-15T08:22:22;98469.72;;;18.58;nan
24390;BME280;12510;56.468;-3.004;2022-11-15T08:25:07;98478.69;;;18.06;nan
24390;BME280;12510;56.468;-3.004;2022-11-15T08:27:53;98457.75;;;18.77;nan
24390;BME280;12510;56.468;-3.004;2022-11-15T08:30:40;98449.38;;;18.23;nan
24390;BME280;12510;56.468;-3.004;2022-11-15T08:33:27;98450.72;;;18.37;nan
24390;BME280;12510;56.468;-3.004;2022-11-15T08:36:14;98462.34;;;18.31;nan
24390;BME280;12510;56.468;-3.004;2022-11-15T08:39:00;98461.88;;;18.05;nan
24390;BME280;12510;56.468;-3.004;2022-11-15T08:41:45;98434.78;;;18.25;nan
24390;BME280;12510;56.468;-3.004;2022-11-15T08:44:30;98433.84;;;19.61;nan
24390;BME280;12510;56.468;-3.004;2022-11-15T08:47:14;98431.69;;;19.19;nan
24390;BME280;12510;56.468;-3.004;2022-11-15T08:49:59;98452.06;;;19.25;nan
24390;BME280;12510;56.468;-3.004;2022-11-15T08:52:44;98439.91;;;18.78;nan
24390;BME280;12510;56.468;-3.004;2022-11-15T08:55:29;98430.91;;;18.84;nan
24390;BME280;12510;56.468;-3.004;2022-11-15T08:58:14;98430.84;;;18.28;nan
24390;BME280;12510;56.468;-3.004;2022-11-15T09:00:59;98437.91;;;18.51;nan
24390;BME280;12510;56.468;-3.004;2022-11-15T09:03:44;98417.09;;;18.36;nan
24390;BME280;12510;56.468;-3.004;2022-11-15T09:06:30;98403.97;;;19.20;nan
24390;BME280;12510;56.468;-3.004;2022-11-15T09:09:15;98393.53;;;19.63;nan
24390;BME280;12510;56.468;-3.004;2022-11-15T09:12:00;98386.13;;;19.03;nan
24390;BME280;12510;56.468;-3.004;2022-11-15T09:14:45;98399.25;;;19.27;nan
24390;BME280;12510;56.468;-3.004;2022-11-15T09:17:30;98397.78;;;19.14;nan
24390;BME280;12510;56.468;-3.004;2022-11-15T09:20:15;98382.78;;;19.35;nan
24390;BME280;12510;56.468;-3.004;2022-11-15T09:23:01;98369.72;;;19.34;nan
24390;BME280;12510;56.468;-3.004;2022-11-15T09:25:46;98370.22;;;19.31;nan
24390;BME280;12510;56.468;-3.004;2022-11-15T09:28:32;98360.59;;;19.07;nan
24390;BME280;12510;56.468;-3.004;2022-11-15T09:31:19;98376.81;;;19.50;nan
24390;BME280;12510;56.468;-3.004;2022-11-15T09:34:03;98365.63;;;18.87;nan
24390;BME280;12510;56.468;-3.004;2022-11-15T09:36:48;98354.19;;;19.31;nan
24390;BME280;12510;56.468;-3.004;2022-11-15T09:39:33;98366.84;;;19.40;nan
24390;BME280;12510;56.468;-3.004;2022-11-15T09:45:34;98369.56;;;18.45;nan
24390;BME280;12510;56.468;-3.004;2022-11-15T09:51:38;98342.44;;;17.97;nan
24390;BME280;12510;56.468;-3.004;2022-11-15T09:56:55;98343.97;;;17.93;nan
24390;BME280;12510;56.468;-3.004;2022-11-15T10:04:43;98346.13;;;17.96;nan
24390;BME280;12510;56.468;-3.004;2022-11-15T10:13:01;98333.91;;;17.37;nan
24390;BME280;12510;56.468;-3.004;2022-11-15T10:15:27;98323.25;;;17.95;nan
24390;BME280;12510;56.468;-3.004;2022-11-15T10:20:30;98320.22;;;17.05;nan
24390;BME280;12510;56.468;-3.004;2022-11-15T10:23:00;98316.03;;;17.09;nan
24390;BME280;12510;56.468;-3.004;2022-11-15T10:25:30;98307.16;;;17.61;nan
24390;BME280;12510;56.468;-3.004;2022-11-15T10:28:25;98309.16;;;16.96;nan
24390;BME280;12510;56.468;-3.004;2022-11-15T10:30:58;98302.66;;;18.07;nan
24390;BME280;12510;56.468;-3.004;2022-11-15T10:41:38;98154.72;;;18.17;nan
24390;BME280;12510;56.468;-3.004;2022-11-15T10:46:45;98158.03;;;18.07;nan
24390;BME280;12510;56.468;-3.004;2022-11-15T10:49:26;97980.91;;;17.82;nan
24390;BME280;12510;56.468;-3.004;2022-11-15T10:51:55;98072.00;;;17.84;nan
24390;BME280;12510;56.468;-3.004;2022-11-15T10:56:59;98115.56;;;18.39;nan
24390;BME280;12510;56.468;-3.004;2022-11-15T10:59:29;98216.88;;;18.45;nan
24390;BME280;12510;56.468;-3.004;2022-11-15T11:01:57;98222.38;;;19.04;nan
24390;BME280;12510;56.468;-3.004;2022-11-15T11:04:24;98219.38;;;18.51;nan
24390;BME280;12510;56.468;-3.004;2022-11-15T11:06:54;98210.88;;;18.15;nan
24390;BME280;12510;56.468;-3.004;2022-11-15T11:09:33;98211.78;;;18.43;nan
24390;BME280;12510;56.468;-3.004;2022-11-15T11:12:01;98201.53;;;18.35;nan
24390;BME280;12510;56.468;-3.004;2022-11-15T11:14:34;98203.72;;;17.82;nan
24390;BME280;12510;56.468;-3.004;2022-11-15T11:17:36;98204.47;;;17.94;nan
24390;BME280;12510;56.468;-3.004;2022-11-15T11:20:25;98204.53;;;17.99;nan
24390;BME280;12510;56.468;-3.004;2022-11-15T11:39:55;98178.50;;;18.46;nan
24390;BME280;12510;56.468;-3.004;2022-11-15T11:47:47;98141.16;;;15.23;nan
24390;BME280;12510;56.468;-3.004;2022-11-15T11:50:21;98138.09;;;14.96;nan
24390;BME280;12510;56.468;-3.004;2022-11-15T11:53:00;98123.22;;;15.49;nan
24390;BME280;12510;56.468;-3.004;2022-11-15T11:55:43;98131.06;;;15.55;nan
24390;BME280;12510;56.468;-3.004;2022-11-15T12:00:55;98114.44;;;15.36;nan
24390;BME280;12510;56.468;-3.004;2022-11-15T12:03:29;98113.06;;;15.69;nan
24390;BME280;12510;56.468;-3.004;2022-11-15T12:06:04;98101.06;;;16.02;nan
24390;BME280;12510;56.468;-3.004;2022-11-15T12:08:35;97906.94;;;16.28;nan
24390;BME280;12510;56.468;-3.004;2022-11-15T12:11:13;97909.22;;;15.90;nan
24390;BME280;12510;56.468;-3.004;2022-11-15T12:13:42;97934.00;;;15.43;nan
24390;BME280;12510;56.468;-3.004;2022-11-15T12:16:18;97903.38;;;15.64;nan
24390;BME280;12510;56.468;-3.004;2022-11-15T12:19:03;97915.41;;;15.55;nan
24390;BME280;12510;56.468;-3.004;2022-11-15T12:24:27;97955.09;;;20.60;nan
24390;BME280;12510;56.468;-3.004;2022-11-15T12:27:03;98030.06;;;24.62;nan
24390;BME280;12510;56.468;-3.004;2022-11-15T12:29:37;97904.59;;;20.79;nan
24390;BME280;12510;56.468;-3.004;2022-11-15T12:32:05;98045.25;;;20.85;nan
24390;BME280;12510;56.468;-3.004;2022-11-15T12:34:44;98047.34;;;21.66;nan
24390;BME280;12510;56.468;-3.004;2022-11-15T12:43:00;98042.28;;;20.66;nan
24390;BME280;12510;56.468;-3.004;2022-11-15T12:56:09;97876.34;;;19.37;nan
24390;BME280;12510;56.468;-3.004;2022-11-15T13:06:50;97854.81;;;18.53;nan
24390;BME280;12510;56.468;-3.004;2022-11-15T13:11:57;97854.59;;;20.80;nan
24390;BME280;12510;56.468;-3.004;2022-11-15T13:14:42;97831.03;;;23.09;nan
24390;BME280;12510;56.468;-3.004;2022-11-15T13:19:43;97960.72;;;21.15;nan
24390;BME280;12510;56.468;-3.004;2022-11-15T13:22:11;63517.41;;;-148.33;100.00
24390;BME280;12510;56.468;-3.004;2022-11-15T13:24:56;63517.41;;;-148.33;100.00
24390;BME280;12510;56.468;-3.004;2022-11-15T13:27:24;97989.75;;;21.68;nan
24390;BME280;12510;56.468;-3.004;2022-11-15T13:29:51;97845.00;;;21.39;nan
24390;BME280;12510;56.468;-3.004;2022-11-15T13:32:19;63517.41;;;-148.33;100.00
24390;BME280;12510;56.468;-3.004;2022-11-15T13:34:48;97835.78;;;21.05;nan
24390;BME280;12510;56.468;-3.004;2022-11-15T13:39:49;97817.16;;;18.39;nan
24390;BME280;12510;56.468;-3.004;2022-11-15T13:42:20;97797.72;;;17.74;nan
24390;BME280;12510;56.468;-3.004;2022-11-15T13:44:59;97802.13;;;17.63;nan
24390;BME280;12510;56.468;-3.004;2022-11-15T13:47:27;97803.78;;;17.97;nan
24390;BME280;12510;56.468;-3.004;2022-11-15T13:49:56;97785.91;;;17.92;nan
24390;BME280;12510;56.468;-3.004;2022-11-15T13:52:27;97776.88;;;17.38;nan
24390;BME280;12510;56.468;-3.004;2022-11-15T13:57:24;97778.53;;;17.99;nan
24390;BME280;12510;56.468;-3.004;2022-11-15T13:59:53;97765.72;;;18.39;nan
24390;BME280;12510;56.468;-3.004;2022-11-15T14:02:41;63517.41;;;-148.33;100.00
24390;BME280;12510;56.468;-3.004;2022-11-15T14:05:19;97781.38;;;20.55;nan
24390;BME280;12510;56.468;-3.004;2022-11-15T14:08:03;97759.84;;;18.85;nan
24390;BME280;12510;56.468;-3.004;2022-11-15T14:10:35;63517.41;;;-148.33;100.00
24390;BME280;12510;56.468;-3.004;2022-11-15T14:13:03;97759.84;;;18.85;nan
24390;BME280;12510;56.468;-3.004;2022-11-15T14:15:35;63517.41;;;-148.33;100.00
24390;BME280;12510;56.468;-3.004;2022-11-15T14:18:03;97759.84;;;18.85;nan
24390;BME280;12510;56.468;-3.004;2022-11-15T14:20:34;97751.69;;;18.59;nan
24390;BME280;12510;56.468;-3.004;2022-11-15T14:23:05;63517.41;;;-148.33;100.00
24390;BME280;12510;56.468;-3.004;2022-11-15T14:25:33;97736.59;;;18.80;nan
24390;BME280;12510;56.468;-3.004;2022-11-15T14:30:50;63517.41;;;-148.33;100.00
24390;BME280;12510;56.468;-3.004;2022-11-15T14:36:15;97729.28;;;19.13;nan
24390;BME280;12510;56.468;-3.004;2022-11-15T14:38:42;97749.88;;;19.38;nan
24390;BME280;12510;56.468;-3.004;2022-11-15T14:41:23;97752.25;;;18.61;nan
24390;BME280;12510;56.468;-3.004;2022-11-15T14:43:51;97744.56;;;17.84;nan
24390;BME280;12510;56.468;-3.004;2022-11-15T14:46:18;97721.53;;;19.17;nan
24390;BME280;12510;56.468;-3.004;2022-11-15T14:48:44;63517.41;;;-148.33;100.00
24390;BME280;12510;56.468;-3.004;2022-11-15T14:51:13;63517.41;;;-148.33;100.00
24390;BME280;12510;56.468;-3.004;2022-11-15T14:53:40;97872.22;;;19.93;nan
24390;BME280;12510;56.468;-3.004;2022-11-15T14:56:08;97671.66;;;20.05;nan
24390;BME280;12510;56.468;-3.004;2022-11-15T14:58:34;63517.41;;;-148.33;100.00
24390;BME280;12510;56.468;-3.004;2022-11-15T15:01:20;63517.41;;;-148.33;100.00
24390;BME280;12510;56.468;-3.004;2022-11-15T15:03:47;63517.41;;;-148.33;100.00
24390;BME280;12510;56.468;-3.004;2022-11-15T15:06:14;63517.41;;;-148.33;100.00
24390;BME280;12510;56.468;-3.004;2022-11-15T15:08:40;63517.41;;;-148.33;100.00
24390;BME280;12510;56.468;-3.004;2022-11-15T15:11:21;63517.41;;;-148.33;100.00
24390;BME280;12510;56.468;-3.004;2022-11-15T15:13:47;63517.41;;;-148.33;100.00
24390;BME280;12510;56.468;-3.004;2022-11-15T15:16:14;63517.41;;;-148.33;100.00
24390;BME280;12510;56.468;-3.004;2022-11-15T15:18:40;63517.41;;;-148.33;100.00
24390;BME280;12510;56.468;-3.004;2022-11-15T15:21:27;63517.41;;;-148.33;100.00
24390;BME280;12510;56.468;-3.004;2022-11-15T15:23:54;63517.41;;;-148.33;100.00
24390;BME280;12510;56.468;-3.004;2022-11-15T15:26:21;63517.41;;;-148.33;100.00
24390;BME280;12510;56.468;-3.004;2022-11-15T15:28:48;63517.41;;;-148.33;100.00
24390;BME280;12510;56.468;-3.004;2022-11-15T15:31:17;63517.41;;;-148.33;100.00
24390;BME280;12510;56.468;-3.004;2022-11-15T15:33:44;63517.41;;;-148.33;100.00
24390;BME280;12510;56.468;-3.004;2022-11-15T15:36:12;63517.41;;;-148.33;100.00
24390;BME280;12510;56.468;-3.004;2022-11-15T15:38:39;63517.41;;;-148.33;100.00
24390;BME280;12510;56.468;-3.004;2022-11-15T15:41:13;63517.41;;;-148.33;100.00
24390;BME280;12510;56.468;-3.004;2022-11-15T15:43:40;63517.41;;;-148.33;100.00
24390;BME280;12510;56.468;-3.004;2022-11-15T15:46:17;63517.41;;;-148.33;100.00
24390;BME280;12510;56.468;-3.004;2022-11-15T15:48:45;63517.41;;;-148.33;100.00
24390;BME280;12510;56.468;-3.004;2022-11-15T15:51:12;63517.41;;;-148.33;100.00
24390;BME280;12510;56.468;-3.004;2022-11-15T15:53:39;63517.41;;;-148.33;100.00
24390;BME280;12510;56.468;-3.004;2022-11-15T15:56:05;63517.41;;;-148.33;100.00
24390;BME280;12510;56.468;-3.004;2022-11-15T15:58:34;63517.41;;;-148.33;100.00
24390;BME280;12510;56.468;-3.004;2022-11-15T16:01:00;63517.41;;;-148.33;100.00
24390;BME280;12510;56.468;-3.004;2022-11-15T16:03:27;63517.41;;;-148.33;100.00
24390;BME280;12510;56.468;-3.004;2022-11-15T16:05:53;63517.41;;;-148.33;100.00
24390;BME280;12510;56.468;-3.004;2022-11-15T16:08:22;63517.41;;;-148.33;100.00
24390;BME280;12510;56.468;-3.004;2022-11-15T16:10:49;63517.41;;;-148.33;100.00
24390;BME280;12510;56.468;-3.004;2022-11-15T16:13:16;63517.41;;;-148.33;100.00
24390;BME280;12510;56.468;-3.004;2022-11-15T16:15:44;63517.41;;;-148.33;100.00
24390;BME280;12510;56.468;-3.004;2022-11-15T16:18:17;63517.41;;;-148.33;100.00
24390;BME280;12510;56.468;-3.004;2022-11-15T16:20:48;63517.41;;;-148.33;100.00
24390;BME280;12510;56.468;-3.004;2022-11-15T16:23:22;63517.41;;;-148.33;100.00
24390;BME280;12510;56.468;-3.004;2022-11-15T16:25:53;63517.41;;;-148.33;100.00
24390;BME280;12510;56.468;-3.004;2022-11-15T16:28:29;97737.34;;;23.32;nan
24390;BME280;12510;56.468;-3.004;2022-11-15T16:33:30;63517.41;;;-148.33;100.00
24390;BME280;12510;56.468;-3.004;2022-11-15T16:35:56;63517.41;;;-148.33;100.00
24390;BME280;12510;56.468;-3.004;2022-11-15T16:38:23;63517.41;;;-148.33;100.00